createdAt,value
2023-05-14T00:00:02.184Z,32.50
2023-05-14T00:02:30.257Z,31.40
2023-05-14T00:05:07.347Z,29.90
2023-05-14T00:07:35.615Z,27.00
2023-05-14T00:10:03.550Z,26.50
2023-05-14T00:12:31.637Z,29.00
2023-05-14T00:14:59.665Z,27.00
2023-05-14T00:17:27.611Z,29.90
2023-05-14T00:19:55.991Z,27.50
2023-05-14T00:22:23.852Z,27.10
2023-05-14T00:24:51.723Z,24.80
2023-05-14T00:27:19.458Z,28.60
2023-05-14T00:29:47.206Z,27.40
2023-05-14T00:32:15.560Z,29.20
2023-05-14T00:34:43.305Z,27.40
2023-05-14T00:37:11.282Z,29.60
2023-05-14T00:39:39.159Z,30.50
2023-05-14T00:42:07.027Z,30.60
2023-05-14T00:44:36.060Z,29.80
2023-05-14T00:47:05.342Z,28.10
2023-05-14T00:49:34.157Z,25.50
2023-05-14T00:52:02.309Z,24.70
2023-05-14T00:54:30.643Z,30.30
2023-05-14T00:57:07.463Z,31.70
2023-05-14T00:59:36.037Z,27.10
2023-05-14T01:02:03.986Z,29.40
2023-05-14T01:04:31.904Z,28.70
2023-05-14T01:07:36.767Z,28.50
2023-05-14T01:10:11.039Z,27.10
2023-05-14T01:12:57.341Z,28.40
2023-05-14T01:15:29.004Z,28.60
2023-05-14T01:18:02.516Z,34.00
2023-05-14T01:20:31.148Z,30.80
2023-05-14T01:22:59.033Z,29.00
2023-05-14T01:25:27.266Z,29.80
2023-05-14T01:28:17.991Z,33.20
2023-05-14T01:30:51.822Z,28.40
2023-05-14T01:33:21.830Z,28.90
2023-05-14T01:35:51.013Z,27.90
2023-05-14T01:38:20.216Z,28.20
2023-05-14T01:40:49.711Z,29.20
2023-05-14T01:43:19.237Z,28.40
2023-05-14T01:45:47.337Z,31.60
2023-05-14T01:48:15.470Z,29.20
2023-05-14T01:50:43.339Z,32.30
2023-05-14T01:53:14.263Z,30.50
2023-05-14T01:55:42.373Z,35.10
2023-05-14T01:58:11.248Z,34.10
2023-05-14T02:00:39.052Z,29.50
2023-05-14T02:03:07.271Z,30.00
2023-05-14T02:05:35.025Z,33.70
2023-05-14T02:08:02.889Z,33.70
2023-05-14T02:10:31.348Z,30.80
2023-05-14T02:12:59.665Z,33.60
2023-05-14T02:15:27.471Z,33.70
2023-05-14T02:17:55.242Z,30.40
2023-05-14T02:20:23.142Z,32.00
2023-05-14T02:22:51.522Z,33.20
2023-05-14T02:25:19.734Z,31.00
2023-05-14T02:27:49.525Z,33.10
2023-05-14T02:30:17.353Z,34.00
2023-05-14T02:32:46.362Z,38.00
2023-05-14T02:35:14.407Z,35.10
2023-05-14T02:37:42.198Z,39.40
2023-05-14T02:40:11.310Z,38.10
2023-05-14T02:42:40.089Z,37.40
2023-05-14T02:45:08.162Z,37.80
2023-05-14T02:47:37.992Z,36.30
2023-05-14T02:50:07.128Z,33.30
2023-05-14T02:52:35.966Z,37.20
2023-05-14T02:55:04.060Z,36.50
2023-05-14T02:57:32.498Z,38.20
2023-05-14T03:00:00.336Z,32.10
2023-05-14T03:02:29.126Z,36.90
2023-05-14T03:05:00.267Z,37.50
2023-05-14T03:07:28.676Z,34.00
2023-05-14T03:09:56.621Z,35.20
2023-05-14T03:12:24.578Z,35.60
2023-05-14T03:14:52.633Z,34.90
2023-05-14T03:17:20.432Z,35.60
2023-05-14T03:19:48.861Z,34.40
2023-05-14T03:22:16.878Z,33.60
2023-05-14T03:24:45.058Z,33.20
2023-05-14T03:27:15.611Z,32.90
2023-05-14T03:29:43.575Z,32.00
2023-05-14T03:32:11.457Z,32.90
2023-05-14T03:34:39.267Z,30.30
2023-05-14T03:37:07.476Z,31.90
2023-05-14T03:39:35.201Z,32.00
2023-05-14T03:42:03.027Z,31.90
2023-05-14T03:44:30.923Z,33.20
2023-05-14T03:47:06.088Z,30.90
2023-05-14T03:49:33.888Z,32.40
2023-05-14T03:52:02.031Z,30.90
2023-05-14T03:54:29.910Z,31.20
2023-05-14T03:56:57.830Z,29.20
2023-05-14T03:59:25.742Z,32.30
2023-05-14T04:01:54.163Z,31.00
2023-05-14T04:04:22.617Z,33.20
2023-05-14T04:06:50.562Z,39.00
2023-05-14T04:09:18.387Z,37.80
2023-05-14T04:11:46.411Z,39.20
2023-05-14T04:14:14.405Z,36.40
2023-05-14T04:16:42.898Z,37.60
2023-05-14T04:19:11.715Z,39.40
2023-05-14T04:21:39.918Z,34.80
2023-05-14T04:24:08.202Z,41.00
2023-05-14T04:26:36.011Z,41.70
2023-05-14T04:29:03.915Z,40.10
2023-05-14T04:31:34.184Z,38.90
2023-05-14T04:34:02.429Z,39.30
2023-05-14T04:36:30.204Z,37.80
2023-05-14T04:38:58.111Z,38.80
2023-05-14T04:41:26.332Z,38.60
2023-05-14T04:43:56.900Z,37.40
2023-05-14T04:46:25.078Z,33.00
2023-05-14T04:48:53.298Z,35.60
2023-05-14T04:51:21.497Z,35.40
2023-05-14T04:53:49.276Z,33.00
2023-05-14T04:56:17.074Z,34.30
2023-05-14T04:58:44.871Z,29.70
2023-05-14T05:01:13.602Z,26.20
2023-05-14T05:03:42.131Z,24.50
2023-05-14T05:06:12.451Z,22.10
2023-05-14T05:08:41.182Z,26.40
2023-05-14T05:11:08.902Z,23.50
2023-05-14T05:13:36.696Z,24.40
2023-05-14T05:16:05.367Z,20.50
2023-05-14T05:18:33.816Z,18.00
2023-05-14T05:21:01.833Z,21.30
2023-05-14T05:23:29.559Z,17.80
2023-05-14T05:25:57.307Z,17.30
2023-05-14T05:28:25.025Z,17.70
2023-05-14T05:30:53.164Z,13.10
2023-05-14T05:33:21.400Z,15.90
2023-05-14T05:35:50.227Z,15.00
2023-05-14T05:38:18.527Z,14.10
2023-05-14T05:40:48.941Z,14.70
2023-05-14T05:43:16.838Z,10.70
2023-05-14T05:45:46.136Z,14.60
2023-05-14T05:48:14.440Z,12.90
2023-05-14T05:50:44.937Z,21.40
2023-05-14T05:53:12.775Z,17.70
2023-05-14T05:55:41.110Z,19.50
2023-05-14T05:58:08.835Z,18.10
2023-05-14T06:00:36.997Z,14.20
2023-05-14T06:03:05.218Z,15.10
2023-05-14T06:05:33.607Z,14.80
2023-05-14T06:08:01.939Z,15.40
2023-05-14T06:10:30.171Z,15.70
2023-05-14T06:12:58.138Z,13.60
2023-05-14T06:15:26.059Z,15.50
2023-05-14T06:18:02.389Z,14.40
2023-05-14T06:20:30.224Z,10.50
2023-05-14T06:22:58.486Z,15.10
2023-05-14T06:25:26.200Z,14.60
2023-05-14T06:27:54.067Z,17.30
2023-05-14T06:30:22.651Z,16.20
2023-05-14T06:32:51.967Z,13.80
2023-05-14T06:35:20.001Z,15.80
2023-05-14T06:37:47.762Z,15.80
2023-05-14T06:40:15.937Z,15.20
2023-05-14T06:42:44.148Z,16.10
2023-05-14T06:45:21.720Z,12.80
2023-05-14T06:47:50.158Z,12.20
2023-05-14T06:50:18.110Z,13.90
2023-05-14T06:52:51.190Z,12.40
2023-05-14T06:55:19.609Z,16.70
2023-05-14T06:57:47.356Z,12.90
2023-05-14T07:00:16.698Z,12.10
2023-05-14T07:02:46.981Z,13.60
2023-05-14T07:05:15.171Z,15.70
2023-05-14T07:07:42.900Z,11.80
2023-05-14T07:10:11.398Z,12.20
2023-05-14T07:12:39.636Z,14.00
2023-05-14T07:15:08.246Z,15.30
2023-05-14T07:17:36.298Z,13.80
2023-05-14T07:20:04.681Z,14.90
2023-05-14T07:22:32.408Z,11.80
2023-05-14T07:25:00.677Z,10.10
2023-05-14T07:27:28.993Z,10.80
2023-05-14T07:29:56.705Z,10.20
2023-05-14T07:32:25.509Z,8.60
2023-05-14T07:34:53.373Z,11.20
2023-05-14T07:37:24.004Z,11.60
2023-05-14T07:39:53.381Z,12.30
2023-05-14T07:42:34.438Z,10.70
2023-05-14T07:45:05.028Z,10.30
2023-05-14T07:47:33.092Z,9.60
2023-05-14T07:50:01.010Z,14.00
2023-05-14T07:52:30.067Z,8.10
2023-05-14T07:54:57.827Z,11.90
2023-05-14T07:57:26.465Z,12.10
2023-05-14T07:59:54.974Z,11.70
2023-05-14T08:02:22.814Z,12.90
2023-05-14T08:04:51.103Z,11.30
2023-05-14T08:07:19.692Z,9.60
2023-05-14T08:09:47.474Z,7.60
2023-05-14T08:12:16.128Z,6.80
2023-05-14T08:14:44.346Z,7.40
2023-05-14T08:17:12.464Z,7.60
2023-05-14T08:19:41.081Z,11.00
2023-05-14T08:22:09.068Z,8.60
2023-05-14T08:24:36.879Z,9.60
2023-05-14T08:27:05.374Z,6.80
2023-05-14T08:29:33.233Z,9.50
2023-05-14T08:32:08.434Z,9.30
2023-05-14T08:34:39.902Z,8.70
2023-05-14T08:37:07.622Z,13.40
2023-05-14T08:39:36.038Z,8.60
2023-05-14T08:42:08.183Z,11.10
2023-05-14T08:44:45.862Z,8.60
2023-05-14T08:47:18.108Z,8.30
2023-05-14T08:49:58.838Z,8.20
2023-05-14T08:52:27.352Z,8.80
2023-05-14T08:54:57.036Z,8.70
2023-05-14T08:57:26.723Z,7.60
2023-05-14T08:59:54.992Z,5.60
2023-05-14T09:02:29.734Z,8.20
2023-05-14T09:05:00.205Z,5.70
2023-05-14T09:07:28.878Z,6.00
2023-05-14T09:09:56.676Z,7.50
2023-05-14T09:12:24.487Z,8.50
2023-05-14T09:14:52.333Z,12.10
2023-05-14T09:17:20.778Z,5.70
2023-05-14T09:19:49.450Z,8.00
2023-05-14T09:22:18.870Z,4.30
2023-05-14T09:24:46.750Z,5.00
2023-05-14T09:27:21.703Z,5.80
2023-05-14T09:29:49.419Z,8.10
2023-05-14T09:32:17.457Z,6.10
2023-05-14T09:34:45.854Z,7.00
2023-05-14T09:37:14.161Z,8.30
2023-05-14T09:39:41.956Z,5.80
2023-05-14T09:42:09.857Z,4.40
2023-05-14T09:44:38.228Z,6.60
2023-05-14T09:47:09.236Z,8.70
2023-05-14T09:49:37.464Z,7.90
2023-05-14T09:52:07.209Z,9.50
2023-05-14T09:54:35.957Z,9.00
2023-05-14T09:57:03.734Z,7.40
2023-05-14T09:59:31.469Z,5.60
2023-05-14T10:02:34.027Z,6.90
2023-05-14T10:05:23.900Z,5.10
2023-05-14T10:07:53.771Z,6.70
2023-05-14T10:10:24.940Z,7.00
2023-05-14T10:13:06.111Z,6.20
2023-05-14T10:15:41.826Z,8.20
2023-05-14T10:18:23.258Z,6.60
2023-05-14T10:21:02.820Z,6.00
2023-05-14T10:23:31.266Z,7.90
2023-05-14T10:26:01.101Z,7.90
2023-05-14T10:28:28.990Z,7.40
2023-05-14T10:30:56.820Z,9.10
2023-05-14T10:33:24.560Z,4.50
2023-05-14T10:36:08.044Z,5.20
2023-05-14T10:38:37.412Z,4.70
2023-05-14T10:41:07.617Z,6.00
2023-05-14T10:43:40.529Z,6.00
2023-05-14T10:46:11.433Z,8.80
2023-05-14T10:48:43.079Z,4.20
2023-05-14T10:51:11.949Z,6.70
2023-05-14T10:53:42.402Z,5.10
2023-05-14T10:56:15.023Z,5.00
2023-05-14T10:58:45.856Z,6.00
2023-05-14T11:01:14.364Z,6.50
2023-05-14T11:03:46.523Z,6.80
2023-05-14T11:06:16.128Z,17.90
2023-05-14T11:08:46.630Z,6.00
2023-05-14T11:11:15.546Z,4.30
2023-05-14T11:13:44.840Z,4.50
2023-05-14T11:16:22.915Z,6.10
2023-05-14T11:19:04.022Z,5.70
2023-05-14T11:21:35.212Z,3.80
2023-05-14T11:24:05.498Z,8.60
2023-05-14T11:26:34.323Z,6.10
2023-05-14T11:29:02.711Z,4.50
2023-05-14T11:31:31.227Z,4.60
2023-05-14T11:34:00.170Z,5.80
2023-05-14T11:36:27.942Z,7.40
2023-05-14T11:38:55.759Z,6.30
2023-05-14T11:41:23.653Z,7.50
2023-05-14T11:43:52.100Z,5.60
2023-05-14T11:46:20.799Z,3.10
2023-05-14T11:48:48.651Z,5.50
2023-05-14T11:51:16.556Z,5.80
2023-05-14T11:53:45.673Z,5.90
2023-05-14T11:56:14.091Z,6.40
2023-05-14T11:58:48.687Z,5.90
2023-05-14T12:01:16.487Z,6.80
2023-05-14T12:03:44.481Z,4.40
2023-05-14T12:06:12.431Z,2.50
2023-05-14T12:08:40.927Z,5.20
2023-05-14T12:11:09.571Z,8.40
2023-05-14T12:13:37.389Z,5.70
2023-05-14T12:16:05.501Z,7.70
2023-05-14T17:37:23.313Z,8.00
2023-05-14T17:39:52.417Z,9.60
2023-05-14T17:42:20.278Z,10.80
2023-05-14T17:44:48.131Z,11.60
2023-05-14T17:47:15.969Z,10.70
2023-05-14T17:49:44.150Z,9.50
2023-05-14T17:52:12.399Z,9.40
2023-05-14T17:54:40.133Z,9.30
2023-05-14T17:57:08.024Z,10.20
2023-05-14T17:59:36.384Z,10.70
2023-05-14T18:02:07.620Z,9.50
2023-05-14T18:04:36.118Z,10.00
2023-05-14T18:07:05.080Z,10.50
2023-05-14T18:09:32.876Z,7.40
2023-05-14T18:12:01.115Z,9.90
2023-05-14T18:14:28.949Z,7.30
2023-05-14T18:16:56.946Z,27.70
2023-05-14T18:19:25.292Z,10.00
2023-05-14T18:21:55.596Z,11.70
2023-05-14T18:24:23.508Z,9.30
2023-05-14T18:26:51.338Z,8.60
2023-05-14T18:29:19.143Z,13.30
2023-05-14T18:31:47.023Z,9.20
2023-05-14T18:34:15.253Z,10.90
2023-05-14T18:36:43.373Z,9.00
2023-05-14T18:39:11.430Z,9.10
2023-05-14T18:41:39.169Z,9.80
2023-05-14T18:44:06.979Z,8.10
2023-05-14T18:46:35.034Z,9.70
2023-05-14T18:49:03.446Z,14.20
2023-05-14T18:51:31.426Z,7.80
2023-05-14T18:53:59.367Z,10.40
2023-05-14T18:56:27.484Z,14.00
2023-05-14T18:58:55.347Z,11.50
2023-05-14T19:01:25.589Z,13.60
2023-05-14T19:03:54.218Z,8.80
2023-05-14T19:06:22.363Z,12.30
2023-05-14T19:08:50.427Z,10.30
2023-05-14T19:11:18.267Z,8.50
2023-05-14T19:13:46.924Z,11.10
2023-05-14T19:16:15.611Z,13.00
2023-05-14T19:18:43.890Z,8.80
2023-05-14T19:21:11.798Z,8.90
2023-05-14T19:23:39.702Z,12.60
2023-05-14T19:26:07.582Z,15.40
2023-05-14T19:28:38.279Z,15.20
2023-05-14T19:31:06.638Z,11.40
2023-05-14T19:33:34.426Z,14.10
2023-05-14T19:36:02.185Z,16.50
2023-05-14T19:38:30.574Z,11.90
2023-05-14T19:40:58.388Z,17.00
2023-05-14T19:43:26.407Z,12.60
2023-05-14T19:45:54.836Z,13.60
2023-05-14T19:48:22.736Z,15.80
2023-05-14T19:50:50.979Z,14.40
2023-05-14T19:53:18.718Z,11.90
2023-05-14T19:55:46.515Z,8.90
2023-05-14T19:58:14.316Z,7.80
2023-05-14T20:00:42.806Z,11.40
2023-05-14T20:03:10.935Z,10.50
2023-05-14T20:05:38.940Z,11.80
2023-05-14T20:08:08.211Z,9.50
2023-05-14T20:10:36.002Z,12.60
2023-05-14T20:13:04.028Z,9.80
2023-05-14T20:15:32.232Z,10.40
2023-05-14T20:18:13.992Z,10.30
2023-05-14T20:20:42.901Z,15.20
2023-05-14T20:23:10.750Z,8.50
2023-05-14T20:25:39.346Z,10.70
2023-05-14T20:28:07.083Z,16.20
2023-05-14T20:30:34.860Z,10.60
2023-05-14T20:33:02.790Z,8.70
2023-05-14T20:35:30.647Z,8.10
2023-05-14T20:37:59.002Z,8.30
2023-05-14T20:40:26.858Z,6.80
2023-05-14T20:42:54.741Z,10.90
2023-05-14T20:45:22.493Z,8.30
2023-05-14T20:47:51.015Z,7.80
2023-05-14T20:50:19.463Z,9.60
2023-05-14T20:52:47.192Z,9.70
2023-05-14T20:55:15.272Z,9.70
2023-05-14T20:57:43.598Z,32.90
2023-05-14T21:00:12.539Z,52.70
2023-05-14T21:02:40.881Z,18.20
2023-05-14T21:05:09.477Z,12.80
2023-05-14T21:07:37.508Z,9.20
2023-05-14T21:10:06.024Z,10.60
2023-05-14T21:12:33.762Z,9.80
2023-05-14T21:15:01.613Z,10.40
2023-05-14T21:17:30.090Z,13.20
2023-05-14T21:19:58.436Z,8.30
2023-05-14T21:22:27.465Z,9.00
2023-05-14T21:24:56.216Z,10.20
2023-05-14T21:27:24.019Z,13.60
2023-05-14T21:29:51.781Z,9.80
2023-05-14T21:32:22.309Z,12.40
2023-05-14T21:34:50.684Z,12.30
2023-05-14T21:37:18.641Z,9.00
2023-05-14T21:39:46.520Z,12.50
2023-05-14T21:42:32.981Z,9.80
2023-05-14T21:45:01.502Z,11.10
2023-05-14T21:47:29.766Z,10.10
2023-05-14T21:49:57.609Z,9.70
2023-05-14T21:52:26.225Z,10.50
2023-05-14T21:54:53.923Z,11.90
2023-05-14T21:57:22.862Z,12.50
2023-05-14T21:59:50.645Z,12.70
2023-05-14T22:02:18.942Z,11.70
2023-05-14T22:04:47.072Z,15.90
2023-05-14T22:07:14.936Z,11.70
2023-05-14T22:09:42.810Z,12.40
2023-05-14T22:12:10.592Z,13.20
2023-05-14T22:14:38.873Z,10.90
2023-05-14T22:17:07.216Z,11.30
2023-05-14T22:19:35.012Z,10.50
2023-05-14T22:22:02.743Z,11.90
2023-05-14T22:24:30.572Z,10.40
2023-05-14T22:26:58.564Z,14.30
2023-05-14T22:29:26.896Z,13.30
2023-05-14T22:31:54.706Z,16.80
2023-05-14T22:34:22.682Z,16.30
2023-05-14T22:36:50.518Z,16.20
2023-05-14T22:39:18.584Z,16.40
2023-05-14T22:41:46.452Z,17.70
2023-05-14T22:44:14.977Z,15.40
2023-05-14T22:46:42.804Z,12.20
2023-05-14T22:49:10.708Z,16.70
2023-05-14T22:51:38.877Z,17.10
2023-05-14T22:54:06.809Z,19.20
2023-05-14T22:56:35.578Z,17.40
2023-05-14T22:59:04.322Z,15.40
2023-05-14T23:01:32.729Z,17.60
2023-05-14T23:04:00.781Z,19.00
2023-05-14T23:06:30.242Z,17.00
2023-05-14T23:08:58.327Z,18.20
2023-05-14T23:11:27.325Z,17.20
2023-05-14T23:13:55.939Z,12.70
2023-05-14T23:16:24.706Z,19.60
2023-05-14T23:18:52.966Z,14.00
2023-05-14T23:21:20.846Z,14.50
2023-05-14T23:23:48.742Z,18.20
2023-05-14T23:26:16.580Z,14.00
2023-05-14T23:28:44.822Z,18.80
2023-05-14T23:31:12.986Z,16.30
2023-05-14T23:33:40.859Z,13.70
2023-05-14T23:36:09.036Z,15.80
2023-05-14T23:38:37.179Z,18.00
2023-05-14T23:41:05.054Z,15.30
2023-05-14T23:43:33.921Z,14.40
2023-05-14T23:46:02.642Z,15.20
2023-05-14T23:48:30.929Z,16.80
2023-05-14T23:50:58.723Z,15.30
2023-05-14T23:53:26.571Z,16.20
2023-05-14T23:55:54.342Z,19.70
2023-05-14T23:58:22.774Z,16.00
